sensor_id;sensor_type;location;lat;lon;timestamp;P1;durP1;ratioP1;P2;durP2;ratioP2
56718;SDS011;42597;40.636;0.278;2022-07-10T00:02:50;7.22;;;3.58;;
56718;SDS011;42597;40.636;0.278;2022-07-10T00:05:17;5.47;;;3.95;;
56718;SDS011;42597;40.636;0.278;2022-07-10T00:07:44;8.38;;;3.35;;
56718;SDS011;42597;40.636;0.278;2022-07-10T00:10:10;6.28;;;3.92;;
56718;SDS011;42597;40.636;0.278;2022-07-10T00:12:36;5.32;;;3.58;;
56718;SDS011;42597;40.636;0.278;2022-07-10T00:15:03;5.75;;;3.50;;
56718;SDS011;42597;40.636;0.278;2022-07-10T00:17:30;9.33;;;4.23;;
56718;SDS011;42597;40.636;0.278;2022-07-10T00:19:59;5.22;;;3.90;;
56718;SDS011;42597;40.636;0.278;2022-07-10T00:22:25;6.55;;;4.18;;
56718;SDS011;42597;40.636;0.278;2022-07-10T00:24:51;6.70;;;3.80;;
56718;SDS011;42597;40.636;0.278;2022-07-10T00:27:17;6.40;;;4.18;;
56718;SDS011;42597;40.636;0.278;2022-07-10T00:29:44;7.05;;;4.03;;
56718;SDS011;42597;40.636;0.278;2022-07-10T00:32:10;5.05;;;3.60;;
56718;SDS011;42597;40.636;0.278;2022-07-10T00:34:35;6.60;;;4.68;;
56718;SDS011;42597;40.636;0.278;2022-07-10T00:37:02;6.38;;;3.88;;
56718;SDS011;42597;40.636;0.278;2022-07-10T00:39:29;6.35;;;3.92;;
56718;SDS011;42597;40.636;0.278;2022-07-10T00:41:54;5.68;;;3.58;;
56718;SDS011;42597;40.636;0.278;2022-07-10T00:44:20;6.32;;;4.03;;
56718;SDS011;42597;40.636;0.278;2022-07-10T00:46:46;4.05;;;3.03;;
56718;SDS011;42597;40.636;0.278;2022-07-10T00:49:11;7.05;;;4.18;;
56718;SDS011;42597;40.636;0.278;2022-07-10T00:51:37;5.28;;;3.55;;
56718;SDS011;42597;40.636;0.278;2022-07-10T00:54:04;5.30;;;3.25;;
56718;SDS011;42597;40.636;0.278;2022-07-10T00:56:30;6.30;;;3.95;;
56718;SDS011;42597;40.636;0.278;2022-07-10T00:58:57;9.27;;;4.47;;
56718;SDS011;42597;40.636;0.278;2022-07-10T01:01:23;8.00;;;3.97;;
56718;SDS011;42597;40.636;0.278;2022-07-10T01:03:49;6.43;;;4.18;;
56718;SDS011;42597;40.636;0.278;2022-07-10T01:06:15;8.25;;;4.63;;
56718;SDS011;42597;40.636;0.278;2022-07-10T01:08:42;5.55;;;3.92;;
56718;SDS011;42597;40.636;0.278;2022-07-10T01:11:09;5.93;;;4.15;;
56718;SDS011;42597;40.636;0.278;2022-07-10T01:13:35;5.43;;;3.63;;
56718;SDS011;42597;40.636;0.278;2022-07-10T01:16:02;5.10;;;3.55;;
56718;SDS011;42597;40.636;0.278;2022-07-10T01:18:28;8.15;;;4.07;;
56718;SDS011;42597;40.636;0.278;2022-07-10T01:20:57;5.05;;;3.88;;
56718;SDS011;42597;40.636;0.278;2022-07-10T01:23:23;6.65;;;3.90;;
56718;SDS011;42597;40.636;0.278;2022-07-10T01:25:49;4.78;;;3.38;;
56718;SDS011;42597;40.636;0.278;2022-07-10T01:28:16;7.30;;;3.90;;
56718;SDS011;42597;40.636;0.278;2022-07-10T01:30:42;6.05;;;3.92;;
56718;SDS011;42597;40.636;0.278;2022-07-10T01:33:08;6.18;;;3.75;;
56718;SDS011;42597;40.636;0.278;2022-07-10T01:35:33;6.18;;;3.83;;
56718;SDS011;42597;40.636;0.278;2022-07-10T01:37:59;5.50;;;3.78;;
56718;SDS011;42597;40.636;0.278;2022-07-10T01:40:24;7.05;;;4.03;;
56718;SDS011;42597;40.636;0.278;2022-07-10T01:42:50;6.57;;;3.63;;
56718;SDS011;42597;40.636;0.278;2022-07-10T01:45:16;5.97;;;3.65;;
56718;SDS011;42597;40.636;0.278;2022-07-10T01:47:43;7.82;;;3.92;;
56718;SDS011;42597;40.636;0.278;2022-07-10T01:50:09;5.65;;;3.78;;
56718;SDS011;42597;40.636;0.278;2022-07-10T01:52:35;7.78;;;4.22;;
56718;SDS011;42597;40.636;0.278;2022-07-10T01:55:02;6.05;;;3.63;;
56718;SDS011;42597;40.636;0.278;2022-07-10T01:57:28;6.43;;;4.13;;
56718;SDS011;42597;40.636;0.278;2022-07-10T01:59:54;5.63;;;4.30;;
56718;SDS011;42597;40.636;0.278;2022-07-10T02:02:19;7.93;;;4.43;;
56718;SDS011;42597;40.636;0.278;2022-07-10T02:04:45;5.90;;;3.70;;
56718;SDS011;42597;40.636;0.278;2022-07-10T02:07:15;7.38;;;4.38;;
56718;SDS011;42597;40.636;0.278;2022-07-10T02:09:42;7.40;;;4.65;;
56718;SDS011;42597;40.636;0.278;2022-07-10T02:12:09;7.00;;;3.95;;
56718;SDS011;42597;40.636;0.278;2022-07-10T02:14:36;9.65;;;4.47;;
56718;SDS011;42597;40.636;0.278;2022-07-10T02:17:03;5.68;;;3.95;;
56718;SDS011;42597;40.636;0.278;2022-07-10T02:19:29;7.85;;;4.57;;
56718;SDS011;42597;40.636;0.278;2022-07-10T02:21:54;6.80;;;4.50;;
56718;SDS011;42597;40.636;0.278;2022-07-10T02:24:20;6.72;;;4.43;;
56718;SDS011;42597;40.636;0.278;2022-07-10T02:26:46;6.80;;;4.30;;
56718;SDS011;42597;40.636;0.278;2022-07-10T02:29:12;9.38;;;4.82;;
56718;SDS011;42597;40.636;0.278;2022-07-10T02:31:38;6.15;;;4.43;;
56718;SDS011;42597;40.636;0.278;2022-07-10T02:34:07;6.32;;;4.72;;
56718;SDS011;42597;40.636;0.278;2022-07-10T02:36:34;6.13;;;4.40;;
56718;SDS011;42597;40.636;0.278;2022-07-10T02:38:59;8.35;;;4.40;;
56718;SDS011;42597;40.636;0.278;2022-07-10T02:41:25;8.07;;;4.05;;
56718;SDS011;42597;40.636;0.278;2022-07-10T02:43:51;5.47;;;3.78;;
56718;SDS011;42597;40.636;0.278;2022-07-10T02:46:17;6.85;;;3.92;;
56718;SDS011;42597;40.636;0.278;2022-07-10T02:48:42;7.43;;;4.75;;
56718;SDS011;42597;40.636;0.278;2022-07-10T02:51:08;5.43;;;3.38;;
56718;SDS011;42597;40.636;0.278;2022-07-10T02:53:34;6.30;;;4.43;;
56718;SDS011;42597;40.636;0.278;2022-07-10T02:55:59;8.68;;;5.10;;
56718;SDS011;42597;40.636;0.278;2022-07-10T02:58:25;6.32;;;4.38;;
56718;SDS011;42597;40.636;0.278;2022-07-10T03:00:51;6.47;;;4.18;;
56718;SDS011;42597;40.636;0.278;2022-07-10T03:03:17;5.57;;;3.92;;
56718;SDS011;42597;40.636;0.278;2022-07-10T03:05:43;6.32;;;4.32;;
56718;SDS011;42597;40.636;0.278;2022-07-10T03:08:10;5.90;;;4.43;;
56718;SDS011;42597;40.636;0.278;2022-07-10T03:10:35;6.57;;;4.60;;
56718;SDS011;42597;40.636;0.278;2022-07-10T03:13:01;8.73;;;4.30;;
56718;SDS011;42597;40.636;0.278;2022-07-10T03:15:27;8.05;;;4.72;;
56718;SDS011;42597;40.636;0.278;2022-07-10T03:17:53;8.38;;;5.03;;
56718;SDS011;42597;40.636;0.278;2022-07-10T03:20:19;4.95;;;3.95;;
56718;SDS011;42597;40.636;0.278;2022-07-10T03:22:44;5.80;;;4.40;;
56718;SDS011;42597;40.636;0.278;2022-07-10T03:25:10;13.82;;;4.18;;
56718;SDS011;42597;40.636;0.278;2022-07-10T03:27:36;7.93;;;4.15;;
56718;SDS011;42597;40.636;0.278;2022-07-10T03:30:02;5.78;;;3.83;;
56718;SDS011;42597;40.636;0.278;2022-07-10T03:32:29;8.43;;;4.60;;
56718;SDS011;42597;40.636;0.278;2022-07-10T03:34:54;5.00;;;3.95;;
56718;SDS011;42597;40.636;0.278;2022-07-10T03:37:20;5.80;;;3.88;;
56718;SDS011;42597;40.636;0.278;2022-07-10T03:39:46;6.63;;;4.05;;
56718;SDS011;42597;40.636;0.278;2022-07-10T03:42:12;8.32;;;4.45;;
56718;SDS011;42597;40.636;0.278;2022-07-10T03:44:37;8.38;;;4.30;;
56718;SDS011;42597;40.636;0.278;2022-07-10T03:47:03;5.75;;;3.80;;
56718;SDS011;42597;40.636;0.278;2022-07-10T03:49:29;8.30;;;4.53;;
56718;SDS011;42597;40.636;0.278;2022-07-10T03:51:58;6.47;;;3.70;;
56718;SDS011;42597;40.636;0.278;2022-07-10T03:54:24;8.18;;;4.47;;
56718;SDS011;42597;40.636;0.278;2022-07-10T03:56:50;8.63;;;4.40;;
56718;SDS011;42597;40.636;0.278;2022-07-10T03:59:34;8.05;;;4.28;;
56718;SDS011;42597;40.636;0.278;2022-07-10T04:01:59;4.70;;;3.55;;
56718;SDS011;42597;40.636;0.278;2022-07-10T04:04:25;5.97;;;4.05;;
56718;SDS011;42597;40.636;0.278;2022-07-10T04:06:51;6.05;;;4.30;;
56718;SDS011;42597;40.636;0.278;2022-07-10T04:09:16;8.18;;;4.43;;
56718;SDS011;42597;40.636;0.278;2022-07-10T04:11:42;4.97;;;3.53;;
56718;SDS011;42597;40.636;0.278;2022-07-10T04:14:08;5.93;;;3.65;;
56718;SDS011;42597;40.636;0.278;2022-07-10T04:16:33;5.38;;;3.70;;
56718;SDS011;42597;40.636;0.278;2022-07-10T04:18:59;8.18;;;3.13;;
56718;SDS011;42597;40.636;0.278;2022-07-10T04:21:25;5.43;;;3.70;;
56718;SDS011;42597;40.636;0.278;2022-07-10T04:23:50;6.63;;;3.90;;
56718;SDS011;42597;40.636;0.278;2022-07-10T04:26:16;11.38;;;4.55;;
56718;SDS011;42597;40.636;0.278;2022-07-10T04:28:42;6.30;;;4.43;;
56718;SDS011;42597;40.636;0.278;2022-07-10T04:31:07;5.70;;;4.05;;
56718;SDS011;42597;40.636;0.278;2022-07-10T04:33:33;6.63;;;3.80;;
56718;SDS011;42597;40.636;0.278;2022-07-10T04:35:59;6.68;;;3.90;;
56718;SDS011;42597;40.636;0.278;2022-07-10T04:38:25;7.97;;;3.90;;
56718;SDS011;42597;40.636;0.278;2022-07-10T04:40:50;6.90;;;4.25;;
56718;SDS011;42597;40.636;0.278;2022-07-10T04:43:16;5.78;;;3.65;;
56718;SDS011;42597;40.636;0.278;2022-07-10T04:45:41;5.78;;;4.07;;
56718;SDS011;42597;40.636;0.278;2022-07-10T04:48:07;6.18;;;3.92;;
56718;SDS011;42597;40.636;0.278;2022-07-10T04:50:33;8.27;;;4.28;;
56718;SDS011;42597;40.636;0.278;2022-07-10T04:52:59;6.50;;;4.03;;
56718;SDS011;42597;40.636;0.278;2022-07-10T04:55:25;5.93;;;3.42;;
56718;SDS011;42597;40.636;0.278;2022-07-10T04:57:51;6.90;;;4.35;;
56718;SDS011;42597;40.636;0.278;2022-07-10T05:00:16;6.70;;;4.00;;
56718;SDS011;42597;40.636;0.278;2022-07-10T05:02:42;6.43;;;4.20;;
56718;SDS011;42597;40.636;0.278;2022-07-10T05:05:08;5.60;;;3.42;;
56718;SDS011;42597;40.636;0.278;2022-07-10T05:07:34;5.80;;;3.70;;
56718;SDS011;42597;40.636;0.278;2022-07-10T05:09:59;5.15;;;3.40;;
56718;SDS011;42597;40.636;0.278;2022-07-10T05:12:25;7.15;;;3.78;;
56718;SDS011;42597;40.636;0.278;2022-07-10T05:14:51;8.07;;;3.88;;
56718;SDS011;42597;40.636;0.278;2022-07-10T05:17:17;6.70;;;4.45;;
56718;SDS011;42597;40.636;0.278;2022-07-10T05:19:42;5.35;;;3.67;;
56718;SDS011;42597;40.636;0.278;2022-07-10T05:22:08;6.28;;;4.32;;
56718;SDS011;42597;40.636;0.278;2022-07-10T05:24:34;5.57;;;3.88;;
56718;SDS011;42597;40.636;0.278;2022-07-10T05:27:00;10.32;;;4.25;;
56718;SDS011;42597;40.636;0.278;2022-07-10T05:29:26;6.05;;;3.63;;
56718;SDS011;42597;40.636;0.278;2022-07-10T05:31:51;6.45;;;3.70;;
56718;SDS011;42597;40.636;0.278;2022-07-10T05:34:17;7.65;;;3.88;;
56718;SDS011;42597;40.636;0.278;2022-07-10T05:36:43;5.50;;;4.18;;
56718;SDS011;42597;40.636;0.278;2022-07-10T05:39:08;6.10;;;4.32;;
56718;SDS011;42597;40.636;0.278;2022-07-10T05:41:34;5.18;;;3.70;;
56718;SDS011;42597;40.636;0.278;2022-07-10T05:44:00;7.22;;;3.85;;
56718;SDS011;42597;40.636;0.278;2022-07-10T05:46:25;4.97;;;3.33;;
56718;SDS011;42597;40.636;0.278;2022-07-10T05:48:51;7.07;;;3.95;;
56718;SDS011;42597;40.636;0.278;2022-07-10T05:51:17;7.15;;;4.32;;
56718;SDS011;42597;40.636;0.278;2022-07-10T05:53:42;9.82;;;4.22;;
56718;SDS011;42597;40.636;0.278;2022-07-10T05:56:08;7.47;;;4.18;;
56718;SDS011;42597;40.636;0.278;2022-07-10T05:58:34;7.57;;;3.97;;
56718;SDS011;42597;40.636;0.278;2022-07-10T06:01:00;5.72;;;3.45;;
56718;SDS011;42597;40.636;0.278;2022-07-10T06:03:25;7.68;;;3.85;;
56718;SDS011;42597;40.636;0.278;2022-07-10T06:05:51;10.65;;;4.03;;
56718;SDS011;42597;40.636;0.278;2022-07-10T06:08:17;5.32;;;3.78;;
56718;SDS011;42597;40.636;0.278;2022-07-10T06:10:43;5.90;;;4.13;;
56718;SDS011;42597;40.636;0.278;2022-07-10T06:13:11;5.00;;;3.28;;
56718;SDS011;42597;40.636;0.278;2022-07-10T06:15:37;12.13;;;4.03;;
56718;SDS011;42597;40.636;0.278;2022-07-10T06:18:04;4.75;;;3.40;;
56718;SDS011;42597;40.636;0.278;2022-07-10T06:20:30;6.72;;;4.40;;
56718;SDS011;42597;40.636;0.278;2022-07-10T06:22:56;7.85;;;4.20;;
56718;SDS011;42597;40.636;0.278;2022-07-10T06:25:23;4.85;;;3.53;;
56718;SDS011;42597;40.636;0.278;2022-07-10T06:27:48;7.38;;;3.92;;
56718;SDS011;42597;40.636;0.278;2022-07-10T06:30:14;6.10;;;4.22;;
56718;SDS011;42597;40.636;0.278;2022-07-10T06:32:40;7.45;;;3.53;;
56718;SDS011;42597;40.636;0.278;2022-07-10T06:35:06;6.95;;;3.47;;
56718;SDS011;42597;40.636;0.278;2022-07-10T06:37:32;6.57;;;4.07;;
56718;SDS011;42597;40.636;0.278;2022-07-10T06:39:59;6.22;;;3.90;;
56718;SDS011;42597;40.636;0.278;2022-07-10T06:42:25;7.63;;;3.40;;
56718;SDS011;42597;40.636;0.278;2022-07-10T06:44:50;7.75;;;4.15;;
56718;SDS011;42597;40.636;0.278;2022-07-10T06:47:17;7.80;;;4.05;;
56718;SDS011;42597;40.636;0.278;2022-07-10T06:50:03;5.95;;;3.92;;
56718;SDS011;42597;40.636;0.278;2022-07-10T06:52:31;5.75;;;4.05;;
56718;SDS011;42597;40.636;0.278;2022-07-10T06:54:58;5.80;;;4.00;;
56718;SDS011;42597;40.636;0.278;2022-07-10T06:57:24;9.02;;;5.40;;
56718;SDS011;42597;40.636;0.278;2022-07-10T06:59:50;8.25;;;4.47;;
56718;SDS011;42597;40.636;0.278;2022-07-10T07:02:17;11.30;;;7.55;;
56718;SDS011;42597;40.636;0.278;2022-07-10T07:04:42;9.85;;;6.68;;
56718;SDS011;42597;40.636;0.278;2022-07-10T07:07:09;6.82;;;4.63;;
56718;SDS011;42597;40.636;0.278;2022-07-10T07:09:35;5.35;;;4.03;;
56718;SDS011;42597;40.636;0.278;2022-07-10T07:12:01;5.22;;;3.42;;
56718;SDS011;42597;40.636;0.278;2022-07-10T07:14:27;6.20;;;3.80;;
56718;SDS011;42597;40.636;0.278;2022-07-10T07:16:52;6.05;;;3.70;;
56718;SDS011;42597;40.636;0.278;2022-07-10T07:19:29;5.30;;;3.80;;
56718;SDS011;42597;40.636;0.278;2022-07-10T07:22:17;6.10;;;4.03;;
56718;SDS011;42597;40.636;0.278;2022-07-10T07:25:05;8.03;;;3.93;;
56718;SDS011;42597;40.636;0.278;2022-07-10T07:27:35;6.65;;;4.53;;
56718;SDS011;42597;40.636;0.278;2022-07-10T07:30:05;5.88;;;3.97;;
56718;SDS011;42597;40.636;0.278;2022-07-10T07:32:32;9.40;;;4.13;;
56718;SDS011;42597;40.636;0.278;2022-07-10T07:34:59;9.30;;;3.95;;
56718;SDS011;42597;40.636;0.278;2022-07-10T07:37:38;6.32;;;4.10;;
56718;SDS011;42597;40.636;0.278;2022-07-10T07:40:06;6.63;;;4.40;;
56718;SDS011;42597;40.636;0.278;2022-07-10T07:42:34;5.45;;;3.85;;
56718;SDS011;42597;40.636;0.278;2022-07-10T07:45:00;5.53;;;3.88;;
56718;SDS011;42597;40.636;0.278;2022-07-10T07:47:26;5.28;;;3.80;;
56718;SDS011;42597;40.636;0.278;2022-07-10T07:49:52;6.53;;;4.88;;
56718;SDS011;42597;40.636;0.278;2022-07-10T07:52:18;10.15;;;5.15;;
56718;SDS011;42597;40.636;0.278;2022-07-10T07:54:43;4.75;;;3.40;;
56718;SDS011;42597;40.636;0.278;2022-07-10T07:57:10;6.53;;;3.78;;
56718;SDS011;42597;40.636;0.278;2022-07-10T07:59:35;6.03;;;3.65;;
56718;SDS011;42597;40.636;0.278;2022-07-10T08:02:01;5.28;;;3.70;;
56718;SDS011;42597;40.636;0.278;2022-07-10T08:04:27;6.88;;;3.95;;
56718;SDS011;42597;40.636;0.278;2022-07-10T08:06:52;7.85;;;4.30;;
56718;SDS011;42597;40.636;0.278;2022-07-10T08:09:19;8.65;;;4.55;;
56718;SDS011;42597;40.636;0.278;2022-07-10T08:11:45;5.22;;;3.83;;
56718;SDS011;42597;40.636;0.278;2022-07-10T08:14:11;8.88;;;4.15;;
56718;SDS011;42597;40.636;0.278;2022-07-10T08:16:37;6.40;;;3.88;;
56718;SDS011;42597;40.636;0.278;2022-07-10T08:19:03;7.00;;;3.78;;
56718;SDS011;42597;40.636;0.278;2022-07-10T08:21:29;11.23;;;3.92;;
56718;SDS011;42597;40.636;0.278;2022-07-10T08:23:55;9.48;;;5.90;;
56718;SDS011;42597;40.636;0.278;2022-07-10T08:26:21;9.38;;;7.88;;
56718;SDS011;42597;40.636;0.278;2022-07-10T08:28:46;7.00;;;4.28;;
56718;SDS011;42597;40.636;0.278;2022-07-10T08:31:12;7.63;;;3.53;;
56718;SDS011;42597;40.636;0.278;2022-07-10T08:33:38;8.35;;;4.40;;
56718;SDS011;42597;40.636;0.278;2022-07-10T08:36:04;6.53;;;3.38;;
56718;SDS011;42597;40.636;0.278;2022-07-10T08:38:30;6.03;;;3.53;;
56718;SDS011;42597;40.636;0.278;2022-07-10T08:40:56;6.00;;;3.50;;
56718;SDS011;42597;40.636;0.278;2022-07-10T08:43:25;11.25;;;6.90;;
56718;SDS011;42597;40.636;0.278;2022-07-10T08:45:51;7.00;;;3.92;;
56718;SDS011;42597;40.636;0.278;2022-07-10T08:48:21;9.32;;;4.57;;
56718;SDS011;42597;40.636;0.278;2022-07-10T08:50:51;9.77;;;4.05;;
56718;SDS011;42597;40.636;0.278;2022-07-10T08:53:24;7.07;;;3.63;;
56718;SDS011;42597;40.636;0.278;2022-07-10T08:55:55;6.93;;;3.50;;
56718;SDS011;42597;40.636;0.278;2022-07-10T08:58:21;8.10;;;3.50;;
56718;SDS011;42597;40.636;0.278;2022-07-10T09:00:48;4.70;;;3.30;;
56718;SDS011;42597;40.636;0.278;2022-07-10T09:03:13;10.40;;;3.83;;
56718;SDS011;42597;40.636;0.278;2022-07-10T09:05:39;6.72;;;4.10;;
56718;SDS011;42597;40.636;0.278;2022-07-10T09:08:09;7.05;;;3.50;;
56718;SDS011;42597;40.636;0.278;2022-07-10T09:10:46;7.28;;;3.88;;
56718;SDS011;42597;40.636;0.278;2022-07-10T09:13:12;7.57;;;4.45;;
56718;SDS011;42597;40.636;0.278;2022-07-10T09:15:38;5.95;;;3.03;;
56718;SDS011;42597;40.636;0.278;2022-07-10T09:18:05;8.65;;;3.40;;
56718;SDS011;42597;40.636;0.278;2022-07-10T09:20:34;5.75;;;3.38;;
56718;SDS011;42597;40.636;0.278;2022-07-10T09:23:17;5.82;;;3.17;;
56718;SDS011;42597;40.636;0.278;2022-07-10T09:25:43;9.35;;;3.20;;
56718;SDS011;42597;40.636;0.278;2022-07-10T09:28:10;6.07;;;3.60;;
56718;SDS011;42597;40.636;0.278;2022-07-10T09:30:38;8.30;;;3.60;;
56718;SDS011;42597;40.636;0.278;2022-07-10T09:33:14;7.43;;;3.60;;
56718;SDS011;42597;40.636;0.278;2022-07-10T09:41:13;12.05;;;3.17;;
56718;SDS011;42597;40.636;0.278;2022-07-10T09:43:46;5.72;;;3.55;;
56718;SDS011;42597;40.636;0.278;2022-07-10T09:46:11;6.43;;;2.70;;
56718;SDS011;42597;40.636;0.278;2022-07-10T09:48:37;7.72;;;3.20;;
56718;SDS011;42597;40.636;0.278;2022-07-10T09:51:05;5.85;;;3.15;;
56718;SDS011;42597;40.636;0.278;2022-07-10T09:53:39;4.65;;;2.78;;
56718;SDS011;42597;40.636;0.278;2022-07-10T09:56:10;5.47;;;3.03;;
56718;SDS011;42597;40.636;0.278;2022-07-10T09:58:37;7.53;;;3.30;;
56718;SDS011;42597;40.636;0.278;2022-07-10T10:01:04;7.63;;;3.40;;
56718;SDS011;42597;40.636;0.278;2022-07-10T10:03:39;7.67;;;3.40;;
56718;SDS011;42597;40.636;0.278;2022-07-10T10:06:10;4.63;;;2.80;;
56718;SDS011;42597;40.636;0.278;2022-07-10T10:08:59;5.45;;;3.15;;
56718;SDS011;42597;40.636;0.278;2022-07-10T10:11:31;6.70;;;3.28;;
56718;SDS011;42597;40.636;0.278;2022-07-10T10:13:58;5.57;;;3.33;;
56718;SDS011;42597;40.636;0.278;2022-07-10T10:16:26;5.47;;;3.38;;
56718;SDS011;42597;40.636;0.278;2022-07-10T10:18:52;6.38;;;3.53;;
56718;SDS011;42597;40.636;0.278;2022-07-10T10:21:38;6.05;;;3.40;;
56718;SDS011;42597;40.636;0.278;2022-07-10T10:24:04;6.20;;;3.60;;
56718;SDS011;42597;40.636;0.278;2022-07-10T10:26:31;4.20;;;2.60;;
56718;SDS011;42597;40.636;0.278;2022-07-10T10:28:59;5.70;;;3.33;;
56718;SDS011;42597;40.636;0.278;2022-07-10T10:31:26;8.05;;;4.07;;
56718;SDS011;42597;40.636;0.278;2022-07-10T10:33:54;5.68;;;3.30;;
56718;SDS011;42597;40.636;0.278;2022-07-10T10:39:02;5.93;;;3.50;;
56718;SDS011;42597;40.636;0.278;2022-07-10T10:41:37;5.47;;;2.65;;
56718;SDS011;42597;40.636;0.278;2022-07-10T10:46:34;7.47;;;3.33;;
56718;SDS011;42597;40.636;0.278;2022-07-10T10:49:07;6.53;;;3.22;;
56718;SDS011;42597;40.636;0.278;2022-07-10T10:54:24;4.85;;;3.17;;
56718;SDS011;42597;40.636;0.278;2022-07-10T10:57:13;4.00;;;2.88;;
56718;SDS011;42597;40.636;0.278;2022-07-10T10:59:46;4.68;;;2.80;;
56718;SDS011;42597;40.636;0.278;2022-07-10T11:02:21;5.07;;;2.97;;
56718;SDS011;42597;40.636;0.278;2022-07-10T11:04:51;5.07;;;3.30;;
56718;SDS011;42597;40.636;0.278;2022-07-10T11:10:33;5.93;;;3.25;;
56718;SDS011;42597;40.636;0.278;2022-07-10T11:13:10;8.80;;;3.63;;
56718;SDS011;42597;40.636;0.278;2022-07-10T11:15:48;8.68;;;3.80;;
56718;SDS011;42597;40.636;0.278;2022-07-10T11:18:19;6.40;;;3.38;;
56718;SDS011;42597;40.636;0.278;2022-07-10T11:20:51;5.90;;;3.78;;
56718;SDS011;42597;40.636;0.278;2022-07-10T11:23:34;5.93;;;3.90;;
56718;SDS011;42597;40.636;0.278;2022-07-10T11:26:37;5.60;;;3.70;;
56718;SDS011;42597;40.636;0.278;2022-07-10T11:29:17;5.13;;;3.17;;
56718;SDS011;42597;40.636;0.278;2022-07-10T11:31:51;7.78;;;3.63;;
56718;SDS011;42597;40.636;0.278;2022-07-10T11:34:18;7.15;;;4.80;;
56718;SDS011;42597;40.636;0.278;2022-07-10T11:36:44;5.35;;;3.75;;
56718;SDS011;42597;40.636;0.278;2022-07-10T11:41:45;5.93;;;3.53;;
56718;SDS011;42597;40.636;0.278;2022-07-10T11:44:15;8.25;;;3.65;;
56718;SDS011;42597;40.636;0.278;2022-07-10T11:46:42;6.30;;;4.25;;
56718;SDS011;42597;40.636;0.278;2022-07-10T11:49:09;10.65;;;4.10;;
56718;SDS011;42597;40.636;0.278;2022-07-10T11:51:37;6.75;;;3.65;;
56718;SDS011;42597;40.636;0.278;2022-07-10T11:56:37;5.07;;;3.60;;
56718;SDS011;42597;40.636;0.278;2022-07-10T11:59:08;5.90;;;3.55;;
56718;SDS011;42597;40.636;0.278;2022-07-10T12:04:06;8.73;;;3.72;;
56718;SDS011;42597;40.636;0.278;2022-07-10T12:06:34;5.00;;;2.75;;
56718;SDS011;42597;40.636;0.278;2022-07-10T12:09:07;5.57;;;3.03;;
56718;SDS011;42597;40.636;0.278;2022-07-10T12:11:35;8.35;;;4.32;;
56718;SDS011;42597;40.636;0.278;2022-07-10T12:14:14;4.93;;;3.03;;
56718;SDS011;42597;40.636;0.278;2022-07-10T12:16:46;6.93;;;3.22;;
56718;SDS011;42597;40.636;0.278;2022-07-10T12:19:14;4.13;;;3.03;;
56718;SDS011;42597;40.636;0.278;2022-07-10T12:21:42;6.97;;;3.45;;
56718;SDS011;42597;40.636;0.278;2022-07-10T12:24:08;5.57;;;3.10;;
56718;SDS011;42597;40.636;0.278;2022-07-10T12:26:36;6.22;;;3.25;;
56718;SDS011;42597;40.636;0.278;2022-07-10T12:29:03;8.43;;;3.25;;
56718;SDS011;42597;40.636;0.278;2022-07-10T12:31:30;6.45;;;3.15;;
56718;SDS011;42597;40.636;0.278;2022-07-10T12:33:58;8.65;;;3.05;;
56718;SDS011;42597;40.636;0.278;2022-07-10T12:39:37;4.40;;;2.42;;
56718;SDS011;42597;40.636;0.278;2022-07-10T12:42:10;7.63;;;2.65;;
56718;SDS011;42597;40.636;0.278;2022-07-10T12:44:39;6.20;;;3.15;;
56718;SDS011;42597;40.636;0.278;2022-07-10T12:47:13;7.60;;;3.60;;
56718;SDS011;42597;40.636;0.278;2022-07-10T12:49:56;4.53;;;2.95;;
56718;SDS011;42597;40.636;0.278;2022-07-10T12:52:30;4.75;;;3.20;;
56718;SDS011;42597;40.636;0.278;2022-07-10T13:00:25;9.60;;;3.35;;
56718;SDS011;42597;40.636;0.278;2022-07-10T13:02:57;5.63;;;2.88;;
56718;SDS011;42597;40.636;0.278;2022-07-10T13:05:48;7.22;;;3.15;;
56718;SDS011;42597;40.636;0.278;2022-07-10T13:08:17;4.47;;;2.78;;
56718;SDS011;42597;40.636;0.278;2022-07-10T13:10:56;5.78;;;3.30;;
56718;SDS011;42597;40.636;0.278;2022-07-10T13:13:25;7.85;;;2.90;;
56718;SDS011;42597;40.636;0.278;2022-07-10T13:15:51;6.25;;;2.80;;
56718;SDS011;42597;40.636;0.278;2022-07-10T13:18:25;10.82;;;3.40;;
56718;SDS011;42597;40.636;0.278;2022-07-10T13:20:55;6.55;;;3.10;;
56718;SDS011;42597;40.636;0.278;2022-07-10T13:23:23;4.95;;;2.97;;
56718;SDS011;42597;40.636;0.278;2022-07-10T13:25:50;5.43;;;2.60;;
56718;SDS011;42597;40.636;0.278;2022-07-10T13:28:19;5.60;;;2.92;;
56718;SDS011;42597;40.636;0.278;2022-07-10T13:30:46;3.85;;;2.20;;
56718;SDS011;42597;40.636;0.278;2022-07-10T13:33:12;6.53;;;2.40;;
56718;SDS011;42597;40.636;0.278;2022-07-10T13:35:38;5.20;;;3.00;;
56718;SDS011;42597;40.636;0.278;2022-07-10T13:38:04;8.40;;;2.75;;
56718;SDS011;42597;40.636;0.278;2022-07-10T13:40:31;6.07;;;2.60;;
56718;SDS011;42597;40.636;0.278;2022-07-10T13:42:59;4.03;;;2.30;;
56718;SDS011;42597;40.636;0.278;2022-07-10T13:45:25;3.50;;;2.45;;
56718;SDS011;42597;40.636;0.278;2022-07-10T13:48:01;3.15;;;2.28;;
56718;SDS011;42597;40.636;0.278;2022-07-10T13:50:29;5.63;;;2.55;;
56718;SDS011;42597;40.636;0.278;2022-07-10T13:52:55;6.10;;;2.97;;
56718;SDS011;42597;40.636;0.278;2022-07-10T13:55:20;4.85;;;2.63;;
56718;SDS011;42597;40.636;0.278;2022-07-10T13:57:46;4.57;;;2.10;;
56718;SDS011;42597;40.636;0.278;2022-07-10T14:00:12;4.72;;;2.22;;
56718;SDS011;42597;40.636;0.278;2022-07-10T14:02:38;6.97;;;2.88;;
56718;SDS011;42597;40.636;0.278;2022-07-10T14:05:03;5.20;;;2.70;;
56718;SDS011;42597;40.636;0.278;2022-07-10T14:07:30;6.15;;;2.53;;
56718;SDS011;42597;40.636;0.278;2022-07-10T14:09:55;5.70;;;2.65;;
56718;SDS011;42597;40.636;0.278;2022-07-10T14:12:21;4.60;;;2.63;;
56718;SDS011;42597;40.636;0.278;2022-07-10T14:14:47;6.20;;;2.80;;
56718;SDS011;42597;40.636;0.278;2022-07-10T14:17:13;5.25;;;2.63;;
56718;SDS011;42597;40.636;0.278;2022-07-10T14:19:38;9.32;;;4.85;;
56718;SDS011;42597;40.636;0.278;2022-07-10T14:22:06;4.53;;;2.60;;
56718;SDS011;42597;40.636;0.278;2022-07-10T14:24:32;4.00;;;2.47;;
56718;SDS011;42597;40.636;0.278;2022-07-10T14:26:58;5.63;;;2.85;;
56718;SDS011;42597;40.636;0.278;2022-07-10T14:29:23;6.00;;;2.65;;
56718;SDS011;42597;40.636;0.278;2022-07-10T14:31:49;6.40;;;2.85;;
56718;SDS011;42597;40.636;0.278;2022-07-10T14:34:16;5.35;;;2.67;;
56718;SDS011;42597;40.636;0.278;2022-07-10T14:36:42;6.18;;;3.30;;
56718;SDS011;42597;40.636;0.278;2022-07-10T14:39:08;4.60;;;2.58;;
56718;SDS011;42597;40.636;0.278;2022-07-10T14:41:34;4.50;;;2.50;;
56718;SDS011;42597;40.636;0.278;2022-07-10T14:44:00;2.95;;;1.85;;
56718;SDS011;42597;40.636;0.278;2022-07-10T14:46:25;4.03;;;2.58;;
56718;SDS011;42597;40.636;0.278;2022-07-10T14:48:51;4.78;;;2.55;;
56718;SDS011;42597;40.636;0.278;2022-07-10T14:51:17;5.25;;;2.78;;
56718;SDS011;42597;40.636;0.278;2022-07-10T14:53:42;5.45;;;2.90;;
56718;SDS011;42597;40.636;0.278;2022-07-10T14:56:10;4.00;;;2.35;;
56718;SDS011;42597;40.636;0.278;2022-07-10T14:58:36;6.30;;;3.30;;
56718;SDS011;42597;40.636;0.278;2022-07-10T15:01:02;5.32;;;2.78;;
56718;SDS011;42597;40.636;0.278;2022-07-10T15:03:28;6.28;;;2.47;;
56718;SDS011;42597;40.636;0.278;2022-07-10T15:05:55;4.63;;;2.90;;
56718;SDS011;42597;40.636;0.278;2022-07-10T15:08:22;6.70;;;2.30;;
56718;SDS011;42597;40.636;0.278;2022-07-10T15:10:48;7.55;;;3.08;;
56718;SDS011;42597;40.636;0.278;2022-07-10T15:13:14;5.05;;;2.50;;
56718;SDS011;42597;40.636;0.278;2022-07-10T15:15:40;8.70;;;2.95;;
56718;SDS011;42597;40.636;0.278;2022-07-10T15:18:07;3.83;;;2.17;;
56718;SDS011;42597;40.636;0.278;2022-07-10T15:20:33;5.50;;;3.05;;
56718;SDS011;42597;40.636;0.278;2022-07-10T15:22:59;9.48;;;2.88;;
56718;SDS011;42597;40.636;0.278;2022-07-10T15:25:24;5.43;;;3.13;;